createdAt,value
2019-04-03T00:02:02.698Z,99.90
2019-04-03T00:04:39.451Z,99.90
2019-04-03T00:07:15.936Z,99.90
2019-04-03T00:09:52.476Z,99.90
2019-04-03T00:12:28.466Z,99.90
2019-04-03T00:15:04.910Z,99.90
2019-04-03T00:17:41.603Z,99.90
2019-04-03T00:20:19.560Z,99.90
2019-04-03T00:22:56.322Z,99.90
2019-04-03T00:25:33.442Z,99.90
2019-04-03T00:28:11.508Z,99.90
2019-04-03T00:30:48.335Z,99.90
2019-04-03T00:33:25.245Z,99.90
2019-04-03T00:36:01.985Z,99.90
2019-04-03T00:38:39.360Z,99.90
2019-04-03T00:41:15.971Z,99.90
2019-04-03T00:43:54.046Z,99.90
2019-04-03T00:46:30.301Z,99.90
2019-04-03T00:49:06.905Z,99.90
2019-04-03T00:51:43.762Z,99.90
2019-04-03T00:54:20.600Z,99.90
2019-04-03T00:56:57.659Z,99.90
2019-04-03T00:59:34.002Z,99.90
2019-04-03T01:02:10.708Z,99.90
2019-04-03T01:04:47.470Z,99.90
2019-04-03T01:07:24.314Z,99.90
2019-04-03T01:10:01.610Z,99.90
2019-04-03T01:12:38.306Z,99.90
2019-04-03T01:15:15.230Z,99.90
2019-04-03T01:17:51.624Z,99.90
2019-04-03T01:20:28.236Z,99.90
2019-04-03T01:23:06.905Z,99.90
2019-04-03T01:25:43.504Z,99.90
2019-04-03T01:28:20.390Z,99.90
2019-04-03T01:30:57.227Z,99.90
2019-04-03T01:33:33.764Z,99.90
2019-04-03T01:36:10.139Z,99.90
2019-04-03T01:38:49.241Z,99.90
2019-04-03T01:41:24.760Z,99.90
2019-04-03T01:44:02.432Z,99.90
2019-04-03T01:46:39.104Z,99.90
2019-04-03T01:49:16.347Z,99.90
2019-04-03T01:51:52.892Z,99.90
2019-04-03T01:54:29.232Z,99.90
2019-04-03T01:57:08.469Z,99.90
2019-04-03T01:59:44.618Z,99.90
2019-04-03T02:02:21.616Z,99.90
2019-04-03T02:04:59.061Z,99.90
2019-04-03T02:07:35.907Z,99.90
2019-04-03T02:10:20.477Z,99.90
2019-04-03T02:12:56.743Z,99.90
2019-04-03T02:15:33.206Z,99.90
2019-04-03T02:18:09.503Z,99.90
2019-04-03T02:20:46.017Z,99.90
2019-04-03T02:23:23.985Z,99.90
2019-04-03T02:26:02.007Z,99.90
2019-04-03T02:28:38.322Z,99.90
2019-04-03T02:31:18.401Z,99.90
2019-04-03T02:33:52.619Z,99.90
2019-04-03T02:36:29.216Z,99.90
2019-04-03T02:39:06.151Z,99.90
2019-04-03T02:41:43.239Z,99.90
2019-04-03T02:44:20.037Z,99.90
2019-04-03T02:46:59.459Z,99.90
2019-04-03T02:49:34.225Z,99.90
2019-04-03T02:52:10.948Z,99.90
2019-04-03T02:54:47.467Z,99.90
2019-04-03T02:57:24.329Z,99.90
2019-04-03T03:00:01.700Z,99.90
2019-04-03T03:02:44.101Z,99.90
2019-04-03T03:05:18.659Z,99.90
2019-04-03T03:07:55.502Z,99.70
2019-04-03T03:10:33.434Z,99.50
2019-04-03T03:13:09.992Z,98.60
2019-04-03T03:15:47.297Z,98.40
2019-04-03T03:18:24.613Z,99.10
2019-04-03T03:21:02.043Z,99.10
2019-04-03T03:23:38.883Z,99.70
2019-04-03T03:26:15.963Z,99.00
2019-04-03T03:28:53.428Z,98.90
2019-04-03T03:31:59.226Z,97.90
2019-04-03T03:34:10.277Z,98.40
2019-04-03T03:36:47.532Z,98.30
2019-04-03T03:39:24.484Z,98.40
2019-04-03T03:42:03.158Z,97.70
2019-04-03T03:44:43.914Z,97.10
2019-04-03T03:47:19.287Z,97.20
2019-04-03T03:49:56.668Z,96.80
2019-04-03T03:52:35.978Z,97.30
2019-04-03T03:55:12.055Z,96.60
2019-04-03T03:57:48.858Z,97.30
2019-04-03T04:00:25.759Z,97.20
2019-04-03T04:03:02.975Z,97.10
2019-04-03T04:05:40.860Z,97.00
2019-04-03T04:08:17.417Z,96.90
2019-04-03T04:10:58.093Z,97.10
2019-04-03T04:13:34.841Z,97.40
2019-04-03T04:16:11.696Z,97.00
2019-04-03T04:18:48.352Z,96.30
2019-04-03T04:21:24.998Z,96.80
2019-04-03T04:24:01.967Z,96.00
2019-04-03T04:26:38.799Z,96.50
2019-04-03T04:29:15.393Z,96.30
2019-04-03T04:31:51.995Z,95.80
2019-04-03T04:34:27.965Z,96.10
2019-04-03T04:37:04.731Z,95.00
2019-04-03T04:39:41.125Z,94.90
2019-04-03T04:42:17.677Z,96.90
2019-04-03T04:44:53.994Z,96.40
2019-04-03T04:47:30.481Z,96.50
2019-04-03T04:50:06.804Z,95.80
2019-04-03T04:52:43.428Z,96.90
2019-04-03T04:55:20.210Z,96.00
2019-04-03T04:57:56.937Z,95.20
2019-04-03T05:00:33.925Z,94.40
2019-04-03T05:03:11.245Z,92.30
2019-04-03T05:05:48.090Z,93.60
2019-04-03T05:08:24.018Z,93.90
2019-04-03T05:11:00.586Z,93.20
2019-04-03T05:13:37.408Z,93.60
2019-04-03T05:16:13.895Z,91.90
2019-04-03T05:18:50.377Z,92.40
2019-04-03T05:21:27.240Z,92.90
2019-04-03T05:24:11.404Z,91.70
2019-04-03T05:26:42.057Z,92.50
2019-04-03T05:29:18.872Z,91.70
2019-04-03T05:31:55.463Z,91.20
2019-04-03T05:34:31.738Z,92.50
2019-04-03T05:37:11.443Z,92.50
2019-04-03T05:39:47.018Z,93.60
2019-04-03T05:42:23.407Z,92.50
2019-04-03T05:44:59.933Z,92.50
2019-04-03T05:47:38.912Z,92.00
2019-04-03T05:50:14.662Z,90.70
2019-04-03T05:52:50.969Z,91.70
2019-04-03T05:55:27.563Z,90.20
2019-04-03T05:58:04.290Z,88.90
2019-04-03T06:00:40.623Z,91.30
2019-04-03T06:03:17.093Z,91.50
2019-04-03T06:05:57.556Z,88.20
2019-04-03T06:08:34.787Z,88.40
2019-04-03T06:11:11.602Z,86.50
2019-04-03T06:13:48.270Z,90.20
2019-04-03T06:16:25.078Z,88.80
2019-04-03T06:19:01.205Z,88.90
2019-04-03T06:21:37.391Z,91.10
2019-04-03T06:24:14.137Z,90.10
2019-04-03T06:26:50.499Z,90.00
2019-04-03T06:29:27.455Z,90.40
2019-04-03T06:32:05.763Z,89.70
2019-04-03T06:34:43.714Z,91.00
2019-04-03T06:37:21.651Z,92.30
2019-04-03T06:39:58.524Z,93.00
2019-04-03T06:42:35.079Z,92.10
2019-04-03T06:45:14.951Z,90.80
2019-04-03T06:47:50.160Z,90.80
2019-04-03T06:50:26.370Z,91.50
2019-04-03T06:53:02.492Z,91.80
2019-04-03T06:55:38.622Z,90.60
2019-04-03T06:58:15.411Z,91.00
2019-04-03T07:00:54.368Z,90.10
2019-04-03T07:03:30.646Z,90.70
2019-04-03T07:06:07.048Z,90.40
2019-04-03T07:08:43.779Z,90.70
2019-04-03T07:11:23.808Z,90.40
2019-04-03T07:13:57.879Z,90.00
2019-04-03T07:16:34.258Z,91.10
2019-04-03T07:19:11.021Z,92.70
2019-04-03T07:21:47.914Z,93.10
2019-04-03T07:24:24.414Z,94.20
2019-04-03T07:27:00.965Z,94.30
2019-04-03T07:29:37.405Z,94.30
2019-04-03T07:32:13.872Z,95.50
2019-04-03T07:34:50.394Z,95.90
2019-04-03T07:37:27.213Z,96.50
2019-04-03T07:40:03.882Z,97.50
2019-04-03T07:42:40.551Z,97.90
2019-04-03T07:45:17.354Z,98.70
2019-04-03T07:47:53.778Z,99.90
2019-04-03T07:50:30.043Z,99.90
2019-04-03T07:53:07.816Z,99.90
2019-04-03T07:55:44.401Z,99.90
2019-04-03T07:58:20.941Z,99.90
2019-04-03T08:00:57.316Z,99.90
2019-04-03T08:03:33.932Z,99.90
2019-04-03T08:06:10.163Z,99.90
2019-04-03T08:08:46.586Z,99.90
2019-04-03T08:11:23.043Z,99.90
2019-04-03T08:13:59.543Z,99.90
2019-04-03T08:16:37.246Z,99.90
2019-04-03T08:19:13.230Z,99.90
2019-04-03T08:21:50.261Z,99.90
2019-04-03T08:24:27.937Z,99.90
2019-04-03T08:27:07.422Z,99.90
2019-04-03T08:29:42.181Z,99.90
2019-04-03T08:32:19.523Z,99.90
2019-04-03T08:34:56.037Z,99.90
2019-04-03T08:37:33.176Z,99.90
2019-04-03T08:40:11.842Z,99.90
2019-04-03T08:42:48.663Z,99.90
2019-04-03T08:45:25.681Z,99.90
2019-04-03T08:48:02.628Z,99.90
2019-04-03T08:50:38.996Z,99.90
2019-04-03T08:53:18.406Z,99.90
2019-04-03T08:55:56.573Z,99.90
2019-04-03T08:58:32.661Z,99.90
2019-04-03T09:01:10.688Z,99.90
2019-04-03T09:03:47.520Z,99.90
2019-04-03T09:06:24.223Z,99.90
2019-04-03T09:09:01.227Z,99.90
2019-04-03T09:11:44.197Z,99.90
2019-04-03T09:14:21.032Z,99.90
2019-04-03T09:16:57.853Z,99.90
2019-04-03T09:19:34.457Z,99.90
2019-04-03T09:22:11.162Z,99.90
2019-04-03T09:24:47.794Z,99.90
2019-04-03T09:27:24.405Z,99.90
2019-04-03T09:30:03.265Z,99.90
2019-04-03T09:32:39.981Z,99.90
2019-04-03T09:35:17.251Z,99.90
2019-04-03T09:37:54.304Z,99.90
2019-04-03T09:40:31.900Z,99.90
2019-04-03T09:43:09.306Z,99.90
2019-04-03T09:45:45.877Z,99.90
2019-04-03T09:48:22.283Z,99.90
2019-04-03T09:50:58.884Z,99.90
2019-04-03T09:53:35.457Z,99.90
2019-04-03T09:56:12.224Z,99.90
2019-04-03T09:58:48.737Z,99.90
2019-04-03T10:01:25.299Z,99.90
2019-04-03T10:04:07.419Z,99.90
2019-04-03T10:06:43.821Z,99.90
2019-04-03T10:09:20.297Z,99.90
2019-04-03T10:11:56.927Z,99.90
2019-04-03T10:14:33.357Z,99.90
2019-04-03T10:17:09.822Z,99.90
2019-04-03T10:19:46.343Z,99.90
2019-04-03T10:22:24.160Z,99.90
2019-04-03T10:25:04.835Z,99.90
2019-04-03T10:27:42.675Z,99.90
2019-04-03T10:30:20.923Z,99.90
2019-04-03T10:32:56.939Z,99.90
2019-04-03T10:35:33.978Z,99.90
2019-04-03T10:38:10.498Z,99.90
2019-04-03T10:40:46.834Z,99.90
2019-04-03T10:43:23.753Z,99.90
2019-04-03T10:46:00.646Z,99.90
2019-04-03T10:48:37.458Z,99.90
2019-04-03T10:51:14.196Z,99.90
2019-04-03T10:53:51.514Z,99.90
2019-04-03T10:56:28.995Z,99.90
2019-04-03T10:59:11.387Z,99.90
2019-04-03T11:01:47.049Z,99.90
2019-04-03T11:04:23.478Z,99.90
2019-04-03T11:07:00.462Z,99.90
2019-04-03T11:09:37.171Z,99.90
2019-04-03T11:12:14.269Z,99.90
2019-04-03T11:14:51.568Z,99.90
2019-04-03T11:17:28.460Z,99.90
2019-04-03T11:20:05.201Z,99.90
2019-04-03T11:22:42.768Z,99.90
2019-04-03T11:25:19.559Z,99.90
2019-04-03T11:28:05.506Z,99.90
2019-04-03T11:30:41.924Z,99.90
2019-04-03T11:33:18.368Z,99.90
2019-04-03T11:35:55.611Z,99.90
2019-04-03T11:38:32.951Z,99.90
2019-04-03T11:41:14.876Z,99.90
2019-04-03T11:43:47.772Z,99.90
2019-04-03T11:46:24.156Z,99.90
2019-04-03T11:49:01.292Z,99.90
2019-04-03T11:51:37.918Z,99.90
2019-04-03T11:54:14.733Z,99.90
2019-04-03T11:56:51.236Z,99.90
2019-04-03T11:59:28.334Z,99.90
2019-04-03T12:02:07.524Z,99.90
2019-04-03T12:04:44.213Z,99.90
2019-04-03T12:07:20.920Z,99.90
2019-04-03T12:09:57.745Z,99.90
2019-04-03T12:12:40.168Z,99.90
2019-04-03T12:15:21.417Z,99.90
2019-04-03T12:17:56.834Z,99.90
2019-04-03T12:20:43.717Z,99.90
2019-04-03T12:23:18.742Z,99.90
2019-04-03T12:25:55.869Z,99.90
2019-04-03T12:28:32.714Z,99.90
2019-04-03T12:31:09.929Z,99.90
2019-04-03T12:33:53.183Z,99.90
2019-04-03T12:36:29.730Z,99.90
2019-04-03T12:39:06.419Z,99.90
2019-04-03T12:41:46.020Z,99.90
2019-04-03T12:44:22.650Z,99.90
2019-04-03T12:46:59.398Z,99.90
2019-04-03T12:49:35.811Z,99.90
2019-04-03T12:52:12.545Z,99.90
2019-04-03T12:54:52.856Z,99.90
2019-04-03T12:57:29.133Z,99.90
2019-04-03T13:00:06.258Z,99.90
2019-04-03T13:02:43.742Z,99.90
2019-04-03T13:05:21.389Z,99.90
2019-04-03T13:07:59.677Z,99.90
2019-04-03T13:10:42.595Z,99.90
2019-04-03T13:13:12.687Z,99.90
2019-04-03T13:15:49.401Z,99.90
2019-04-03T13:18:26.458Z,99.90
2019-04-03T13:21:03.778Z,99.90
2019-04-03T13:23:40.939Z,99.90
2019-04-03T13:26:17.577Z,99.90
2019-04-03T13:28:54.473Z,99.90
2019-04-03T13:31:32.134Z,99.90
2019-04-03T13:34:10.359Z,99.90
2019-04-03T13:36:46.701Z,99.90
2019-04-03T13:39:23.214Z,99.90
2019-04-03T13:42:00.446Z,99.90
2019-04-03T13:44:36.603Z,99.90
2019-04-03T13:47:14.797Z,99.90
2019-04-03T13:49:51.193Z,99.90
2019-04-03T13:52:38.701Z,99.90
2019-04-03T13:55:05.759Z,99.90
2019-04-03T13:57:42.684Z,99.90
2019-04-03T14:00:22.978Z,99.90
2019-04-03T14:02:58.316Z,99.90
2019-04-03T14:05:35.096Z,99.90
2019-04-03T14:08:12.866Z,99.90
2019-04-03T14:10:50.048Z,99.90
2019-04-03T14:13:26.644Z,99.90
2019-04-03T14:16:03.100Z,99.90
2019-04-03T14:18:40.752Z,99.90
2019-04-03T14:21:18.428Z,99.90
2019-04-03T14:23:55.446Z,99.90
2019-04-03T14:26:32.165Z,99.90
2019-04-03T14:29:08.938Z,99.90
2019-04-03T14:31:48.924Z,99.90
2019-04-03T14:34:25.527Z,99.90
2019-04-03T14:37:03.407Z,99.90
2019-04-03T14:39:41.261Z,99.90
2019-04-03T14:42:17.449Z,99.90
2019-04-03T14:44:53.935Z,99.90
2019-04-03T14:47:31.016Z,99.90
2019-04-03T14:50:09.140Z,99.90
2019-04-03T14:52:47.663Z,99.90
2019-04-03T14:55:23.536Z,99.90
2019-04-03T14:57:59.797Z,99.90
2019-04-03T15:00:36.905Z,99.90
2019-04-03T15:03:13.693Z,99.90
2019-04-03T15:05:50.275Z,99.90
2019-04-03T15:08:26.912Z,99.90
2019-04-03T15:11:03.818Z,99.90
2019-04-03T15:13:40.361Z,99.90
2019-04-03T15:16:17.346Z,99.90
2019-04-03T15:18:53.781Z,99.90
2019-04-03T15:21:30.889Z,99.90
2019-04-03T15:24:08.779Z,99.90
2019-04-03T15:26:45.023Z,99.90
2019-04-03T15:29:21.637Z,99.90
2019-04-03T15:31:58.183Z,99.90
2019-04-03T15:34:35.156Z,99.90
2019-04-03T15:37:14.185Z,99.90
2019-04-03T15:39:57.049Z,99.90
2019-04-03T15:42:29.499Z,99.90
2019-04-03T15:45:06.578Z,99.90
2019-04-03T15:47:46.777Z,99.90
2019-04-03T15:50:21.915Z,99.90
2019-04-03T15:52:59.141Z,99.90
2019-04-03T15:55:37.939Z,99.90
2019-04-03T15:58:13.783Z,99.90
2019-04-03T16:00:50.452Z,99.90
2019-04-03T16:03:27.406Z,99.90
2019-04-03T16:06:09.046Z,99.90
2019-04-03T16:08:48.457Z,99.90
2019-04-03T16:11:29.234Z,99.90
2019-04-03T16:14:04.936Z,99.90
2019-04-03T16:16:41.232Z,99.90
2019-04-03T16:19:17.747Z,99.90
2019-04-03T16:21:56.942Z,99.90
2019-04-03T16:24:32.871Z,99.90
2019-04-03T16:27:09.833Z,99.90
2019-04-03T16:29:46.960Z,99.90
2019-04-03T16:32:25.909Z,99.90
2019-04-03T16:35:01.733Z,99.90
2019-04-03T16:37:41.516Z,99.90
2019-04-03T16:40:18.436Z,99.90
2019-04-03T16:42:54.710Z,99.90
2019-04-03T16:45:31.490Z,99.90
2019-04-03T16:48:09.137Z,99.90
2019-04-03T16:50:45.246Z,99.90
2019-04-03T16:53:21.838Z,99.90
2019-04-03T16:55:58.545Z,99.90
2019-04-03T16:58:35.279Z,99.90
2019-04-03T17:01:13.892Z,99.90
2019-04-03T17:03:51.483Z,99.90
2019-04-03T17:06:28.653Z,99.90
2019-04-03T17:09:06.995Z,99.90
2019-04-03T17:11:44.928Z,99.90
2019-04-03T17:14:23.886Z,99.90
2019-04-03T17:16:59.542Z,99.90
2019-04-03T17:19:39.133Z,99.90
2019-04-03T17:22:15.679Z,99.90
2019-04-03T17:24:55.734Z,99.90
2019-04-03T17:27:30.961Z,99.90
2019-04-03T17:30:08.933Z,99.90
2019-04-03T17:32:46.218Z,99.90
2019-04-03T17:35:22.890Z,99.90
2019-04-03T17:38:00.782Z,99.90
2019-04-03T17:40:37.324Z,99.90
2019-04-03T17:43:16.616Z,99.90
2019-04-03T17:45:51.830Z,99.90
2019-04-03T17:48:28.538Z,99.90
2019-04-03T17:51:05.050Z,99.90
2019-04-03T17:53:41.534Z,99.90
2019-04-03T17:56:19.194Z,99.90
2019-04-03T17:58:56.237Z,99.90
2019-04-03T18:01:33.530Z,99.90
2019-04-03T18:04:15.623Z,99.90
2019-04-03T18:06:52.535Z,99.90
2019-04-03T18:09:29.186Z,99.90
2019-04-03T18:12:05.834Z,99.90
2019-04-03T18:14:42.753Z,99.90
2019-04-03T18:17:20.530Z,99.90
2019-04-03T18:19:57.090Z,99.90
2019-04-03T18:22:33.822Z,99.90
2019-04-03T18:25:12.571Z,99.90
2019-04-03T18:27:49.027Z,99.90
2019-04-03T18:30:25.830Z,99.90
2019-04-03T18:33:02.175Z,99.90
2019-04-03T18:35:38.867Z,99.90
2019-04-03T18:38:15.367Z,99.90
2019-04-03T18:40:52.091Z,99.90
2019-04-03T18:43:28.779Z,99.90
2019-04-03T18:46:05.406Z,99.90
2019-04-03T18:48:52.800Z,99.90
2019-04-03T18:51:20.317Z,99.90
2019-04-03T18:53:56.970Z,99.90
2019-04-03T18:56:33.625Z,99.90
2019-04-03T18:59:10.305Z,99.90
2019-04-03T19:01:46.613Z,99.90
2019-04-03T19:04:23.179Z,99.90
2019-04-03T19:06:59.685Z,99.90
2019-04-03T19:09:36.398Z,99.90
2019-04-03T19:12:13.379Z,99.90
2019-04-03T19:14:50.417Z,99.90
2019-04-03T19:17:36.448Z,99.90
2019-04-03T19:20:13.145Z,99.90
2019-04-03T19:23:01.594Z,99.90
2019-04-03T19:25:29.651Z,99.90
2019-04-03T19:28:06.525Z,99.90
2019-04-03T19:30:42.914Z,99.90
2019-04-03T19:33:20.427Z,99.90
2019-04-03T19:35:58.536Z,99.90
2019-04-03T19:38:35.826Z,99.90
2019-04-03T19:41:12.837Z,99.90
2019-04-03T19:43:49.591Z,99.90
2019-04-03T19:46:26.242Z,99.90
2019-04-03T19:49:03.068Z,99.90
2019-04-03T19:51:39.639Z,99.90
2019-04-03T19:54:16.768Z,99.90
2019-04-03T19:56:56.249Z,99.90
2019-04-03T19:59:34.330Z,99.90
2019-04-03T20:02:10.248Z,99.90
2019-04-03T20:04:47.726Z,99.90
2019-04-03T20:07:26.757Z,99.90
2019-04-03T20:10:03.713Z,99.90
2019-04-03T20:12:41.129Z,99.90
2019-04-03T20:15:18.051Z,99.90
2019-04-03T20:17:54.896Z,99.90
2019-04-03T20:20:33.550Z,99.90
2019-04-03T20:23:10.700Z,99.90
2019-04-03T20:25:47.779Z,99.90
2019-04-03T20:28:24.654Z,99.90
2019-04-03T20:31:01.615Z,99.90
2019-04-03T20:33:37.811Z,99.90
2019-04-03T20:36:16.511Z,99.90
2019-04-03T20:38:52.100Z,99.90
2019-04-03T20:41:29.459Z,99.90
2019-04-03T20:44:06.154Z,99.90
2019-04-03T20:46:42.928Z,99.90
2019-04-03T20:49:19.023Z,99.90
2019-04-03T20:51:55.682Z,99.90
2019-04-03T20:54:32.439Z,99.90
2019-04-03T20:57:09.373Z,99.90
2019-04-03T20:59:58.380Z,99.90
2019-04-03T21:02:24.803Z,99.90
2019-04-03T21:05:01.782Z,99.90
2019-04-03T21:07:39.721Z,99.90
2019-04-03T21:10:16.560Z,99.90
2019-04-03T21:12:53.046Z,99.90
2019-04-03T21:15:29.553Z,99.90
2019-04-03T21:18:06.219Z,99.90
2019-04-03T21:20:42.665Z,99.90
2019-04-03T21:23:19.156Z,99.90
2019-04-03T21:25:55.756Z,99.90
2019-04-03T21:28:33.183Z,99.90
2019-04-03T21:31:10.220Z,99.90
2019-04-03T21:33:46.864Z,99.90
2019-04-03T21:36:23.925Z,99.90
2019-04-03T21:39:00.575Z,99.90
2019-04-03T21:41:38.642Z,99.90
2019-04-03T21:44:15.321Z,99.90
2019-04-03T21:46:51.950Z,99.90
2019-04-03T21:49:28.618Z,99.90
2019-04-03T21:52:05.455Z,99.90
2019-04-03T21:54:42.031Z,99.90
2019-04-03T21:57:18.261Z,99.90
2019-04-03T21:59:54.493Z,99.90
2019-04-03T22:02:31.095Z,99.90
2019-04-03T22:05:08.191Z,99.90
2019-04-03T22:07:44.789Z,99.90
2019-04-03T22:10:21.433Z,99.90
2019-04-03T22:12:58.398Z,99.90
2019-04-03T22:15:35.151Z,99.90
2019-04-03T22:18:11.895Z,99.90
2019-04-03T22:20:48.454Z,99.90
2019-04-03T22:23:24.784Z,99.90
2019-04-03T22:26:01.826Z,99.90
2019-04-03T22:28:38.297Z,99.90
2019-04-03T22:31:14.952Z,99.90
2019-04-03T22:33:53.865Z,99.90
2019-04-03T22:36:33.370Z,99.90
2019-04-03T22:39:09.254Z,99.90
2019-04-03T22:41:46.151Z,99.90
2019-04-03T22:44:22.827Z,99.90
2019-04-03T22:46:59.460Z,99.90
2019-04-03T22:49:36.298Z,99.90
2019-04-03T22:52:13.120Z,99.90
2019-04-03T22:54:49.949Z,99.90
2019-04-03T22:57:26.422Z,99.90
2019-04-03T23:00:03.077Z,99.90
2019-04-03T23:02:41.389Z,99.90
2019-04-03T23:05:17.871Z,99.90
2019-04-03T23:07:54.492Z,99.90
2019-04-03T23:10:37.675Z,99.90
2019-04-03T23:13:15.410Z,99.90
2019-04-03T23:15:51.986Z,99.90
2019-04-03T23:18:28.842Z,99.90
2019-04-03T23:21:06.340Z,99.90
2019-04-03T23:24:01.134Z,99.90
2019-04-03T23:26:37.797Z,99.90
2019-04-03T23:29:15.619Z,99.90
2019-04-03T23:31:51.897Z,99.90
2019-04-03T23:34:28.508Z,99.90
2019-04-03T23:37:05.247Z,99.90
2019-04-03T23:39:41.619Z,99.90
2019-04-03T23:42:18.049Z,99.90
2019-04-03T23:44:54.111Z,99.90
2019-04-03T23:47:30.842Z,99.90
2019-04-03T23:50:07.488Z,99.90
2019-04-03T23:52:44.028Z,99.90
2019-04-03T23:55:21.089Z,99.90
2019-04-03T23:57:57.456Z,99.90
